sensor_id;sensor_type;location;lat;lon;timestamp;temperature;humidity
18175;DHT22;9212;50.894;16.714;2022-07-23T00:01:42;16.80;99.90
18175;DHT22;9212;50.894;16.714;2022-07-23T00:04:10;16.80;99.90
18175;DHT22;9212;50.894;16.714;2022-07-23T00:06:37;16.80;99.90
18175;DHT22;9212;50.894;16.714;2022-07-23T00:09:04;16.70;99.90
18175;DHT22;9212;50.894;16.714;2022-07-23T00:11:31;16.70;99.90
18175;DHT22;9212;50.894;16.714;2022-07-23T00:13:58;16.90;99.90
18175;DHT22;9212;50.894;16.714;2022-07-23T00:16:25;16.90;99.90
18175;DHT22;9212;50.894;16.714;2022-07-23T00:18:51;16.80;99.90
18175;DHT22;9212;50.894;16.714;2022-07-23T00:21:20;16.90;99.90
18175;DHT22;9212;50.894;16.714;2022-07-23T00:23:47;16.90;99.90
18175;DHT22;9212;50.894;16.714;2022-07-23T00:26:14;16.80;99.90
18175;DHT22;9212;50.894;16.714;2022-07-23T00:28:41;16.80;99.90
18175;DHT22;9212;50.894;16.714;2022-07-23T00:31:08;16.70;99.90
18175;DHT22;9212;50.894;16.714;2022-07-23T00:33:35;16.60;99.90
18175;DHT22;9212;50.894;16.714;2022-07-23T00:36:02;16.60;99.90
18175;DHT22;9212;50.894;16.714;2022-07-23T00:38:31;16.60;99.90
18175;DHT22;9212;50.894;16.714;2022-07-23T00:40:58;16.50;99.90
18175;DHT22;9212;50.894;16.714;2022-07-23T00:43:24;16.60;99.90
18175;DHT22;9212;50.894;16.714;2022-07-23T00:45:51;16.50;99.90
18175;DHT22;9212;50.894;16.714;2022-07-23T00:48:18;16.80;99.90
18175;DHT22;9212;50.894;16.714;2022-07-23T00:50:45;16.60;99.90
18175;DHT22;9212;50.894;16.714;2022-07-23T00:53:13;16.60;99.90
18175;DHT22;9212;50.894;16.714;2022-07-23T00:55:41;16.60;99.90
18175;DHT22;9212;50.894;16.714;2022-07-23T00:58:09;16.60;99.90
18175;DHT22;9212;50.894;16.714;2022-07-23T01:00:36;16.60;99.90
18175;DHT22;9212;50.894;16.714;2022-07-23T01:03:03;16.60;99.90
18175;DHT22;9212;50.894;16.714;2022-07-23T01:05:30;16.80;99.90
18175;DHT22;9212;50.894;16.714;2022-07-23T01:07:57;16.80;99.90
18175;DHT22;9212;50.894;16.714;2022-07-23T01:10:24;16.70;99.90
18175;DHT22;9212;50.894;16.714;2022-07-23T01:13:00;16.70;99.90
18175;DHT22;9212;50.894;16.714;2022-07-23T01:15:28;16.60;99.90
18175;DHT22;9212;50.894;16.714;2022-07-23T01:17:55;16.60;99.90
18175;DHT22;9212;50.894;16.714;2022-07-23T01:20:22;16.50;99.90
18175;DHT22;9212;50.894;16.714;2022-07-23T01:22:51;16.50;99.90
18175;DHT22;9212;50.894;16.714;2022-07-23T01:25:18;16.50;99.90
18175;DHT22;9212;50.894;16.714;2022-07-23T01:27:45;16.50;99.90
18175;DHT22;9212;50.894;16.714;2022-07-23T01:30:13;16.50;99.90
18175;DHT22;9212;50.894;16.714;2022-07-23T01:32:40;16.50;99.90
18175;DHT22;9212;50.894;16.714;2022-07-23T01:35:08;16.50;99.90
18175;DHT22;9212;50.894;16.714;2022-07-23T01:37:36;16.40;99.90
18175;DHT22;9212;50.894;16.714;2022-07-23T01:40:05;16.40;99.90
18175;DHT22;9212;50.894;16.714;2022-07-23T01:42:33;16.40;99.90
18175;DHT22;9212;50.894;16.714;2022-07-23T01:47:27;16.40;99.90
18175;DHT22;9212;50.894;16.714;2022-07-23T01:49:54;16.40;99.90
18175;DHT22;9212;50.894;16.714;2022-07-23T01:52:21;16.30;99.90
18175;DHT22;9212;50.894;16.714;2022-07-23T01:54:48;16.40;99.90
18175;DHT22;9212;50.894;16.714;2022-07-23T01:57:16;16.40;99.90
18175;DHT22;9212;50.894;16.714;2022-07-23T01:59:43;16.40;99.90
18175;DHT22;9212;50.894;16.714;2022-07-23T02:02:10;16.40;99.90
18175;DHT22;9212;50.894;16.714;2022-07-23T02:04:37;16.50;99.90
18175;DHT22;9212;50.894;16.714;2022-07-23T02:07:05;16.40;99.90
18175;DHT22;9212;50.894;16.714;2022-07-23T02:09:32;16.60;99.90
18175;DHT22;9212;50.894;16.714;2022-07-23T02:12:00;16.40;99.90
18175;DHT22;9212;50.894;16.714;2022-07-23T02:14:29;16.90;99.90
18175;DHT22;9212;50.894;16.714;2022-07-23T02:16:56;16.40;99.90
18175;DHT22;9212;50.894;16.714;2022-07-23T02:19:23;16.40;99.90
18175;DHT22;9212;50.894;16.714;2022-07-23T02:21:50;16.40;99.90
18175;DHT22;9212;50.894;16.714;2022-07-23T02:24:17;16.40;99.90
18175;DHT22;9212;50.894;16.714;2022-07-23T02:26:45;16.40;99.90
18175;DHT22;9212;50.894;16.714;2022-07-23T02:29:12;16.40;99.90
18175;DHT22;9212;50.894;16.714;2022-07-23T02:31:40;16.40;99.90
18175;DHT22;9212;50.894;16.714;2022-07-23T02:34:07;16.40;99.90
18175;DHT22;9212;50.894;16.714;2022-07-23T02:36:37;16.30;99.90
18175;DHT22;9212;50.894;16.714;2022-07-23T02:39:04;16.80;99.90
18175;DHT22;9212;50.894;16.714;2022-07-23T02:41:30;16.40;99.90
18175;DHT22;9212;50.894;16.714;2022-07-23T02:43:57;16.40;99.90
18175;DHT22;9212;50.894;16.714;2022-07-23T02:46:24;16.40;99.90
18175;DHT22;9212;50.894;16.714;2022-07-23T02:48:53;16.40;99.90
18175;DHT22;9212;50.894;16.714;2022-07-23T02:51:20;16.40;99.90
18175;DHT22;9212;50.894;16.714;2022-07-23T02:53:47;16.40;99.90
18175;DHT22;9212;50.894;16.714;2022-07-23T02:56:13;16.50;99.90
18175;DHT22;9212;50.894;16.714;2022-07-23T02:58:40;16.50;99.90
18175;DHT22;9212;50.894;16.714;2022-07-23T03:01:07;16.50;99.90
18175;DHT22;9212;50.894;16.714;2022-07-23T03:03:34;16.60;99.90
18175;DHT22;9212;50.894;16.714;2022-07-23T03:06:03;16.60;99.90
18175;DHT22;9212;50.894;16.714;2022-07-23T03:08:30;16.60;99.90
18175;DHT22;9212;50.894;16.714;2022-07-23T03:10:57;16.60;99.90
18175;DHT22;9212;50.894;16.714;2022-07-23T03:13:24;16.70;99.90
18175;DHT22;9212;50.894;16.714;2022-07-23T03:15:51;16.70;99.90
18175;DHT22;9212;50.894;16.714;2022-07-23T03:18:18;16.70;99.90
18175;DHT22;9212;50.894;16.714;2022-07-23T03:20:45;16.70;99.90
18175;DHT22;9212;50.894;16.714;2022-07-23T03:23:13;16.80;99.90
18175;DHT22;9212;50.894;16.714;2022-07-23T03:25:40;16.80;99.90
18175;DHT22;9212;50.894;16.714;2022-07-23T03:28:07;16.90;99.90
18175;DHT22;9212;50.894;16.714;2022-07-23T03:30:34;16.90;99.90
18175;DHT22;9212;50.894;16.714;2022-07-23T03:35:28;17.10;99.90
18175;DHT22;9212;50.894;16.714;2022-07-23T03:37:55;17.20;99.90
18175;DHT22;9212;50.894;16.714;2022-07-23T03:40:23;17.40;99.90
18175;DHT22;9212;50.894;16.714;2022-07-23T03:42:50;17.40;99.90
18175;DHT22;9212;50.894;16.714;2022-07-23T03:45:17;17.60;99.90
18175;DHT22;9212;50.894;16.714;2022-07-23T03:47:44;17.60;99.90
18175;DHT22;9212;50.894;16.714;2022-07-23T03:50:11;17.70;99.90
18175;DHT22;9212;50.894;16.714;2022-07-23T03:52:38;17.80;99.90
18175;DHT22;9212;50.894;16.714;2022-07-23T03:55:06;17.80;99.90
18175;DHT22;9212;50.894;16.714;2022-07-23T03:57:34;18.00;99.90
18175;DHT22;9212;50.894;16.714;2022-07-23T04:00:03;18.10;99.90
18175;DHT22;9212;50.894;16.714;2022-07-23T04:02:31;18.20;99.90
18175;DHT22;9212;50.894;16.714;2022-07-23T04:04:58;18.30;99.90
18175;DHT22;9212;50.894;16.714;2022-07-23T04:07:26;18.30;99.90
18175;DHT22;9212;50.894;16.714;2022-07-23T04:09:53;18.20;99.90
18175;DHT22;9212;50.894;16.714;2022-07-23T04:12:20;18.40;99.90
18175;DHT22;9212;50.894;16.714;2022-07-23T04:14:48;18.30;99.90
18175;DHT22;9212;50.894;16.714;2022-07-23T04:17:15;18.30;99.90
18175;DHT22;9212;50.894;16.714;2022-07-23T04:19:42;18.50;99.90
18175;DHT22;9212;50.894;16.714;2022-07-23T04:22:12;18.50;99.90
18175;DHT22;9212;50.894;16.714;2022-07-23T04:24:39;18.80;99.90
18175;DHT22;9212;50.894;16.714;2022-07-23T04:27:06;18.70;99.90
18175;DHT22;9212;50.894;16.714;2022-07-23T04:29:33;19.00;99.90
18175;DHT22;9212;50.894;16.714;2022-07-23T04:32:01;19.00;99.90
18175;DHT22;9212;50.894;16.714;2022-07-23T04:34:30;19.00;99.90
18175;DHT22;9212;50.894;16.714;2022-07-23T04:36:58;19.20;99.90
18175;DHT22;9212;50.894;16.714;2022-07-23T04:39:25;19.40;99.90
18175;DHT22;9212;50.894;16.714;2022-07-23T04:41:52;19.70;99.90
18175;DHT22;9212;50.894;16.714;2022-07-23T04:44:19;19.80;99.90
18175;DHT22;9212;50.894;16.714;2022-07-23T04:46:46;19.90;99.90
18175;DHT22;9212;50.894;16.714;2022-07-23T04:49:14;20.00;99.90
18175;DHT22;9212;50.894;16.714;2022-07-23T04:51:41;19.80;99.90
18175;DHT22;9212;50.894;16.714;2022-07-23T04:54:08;19.90;99.90
18175;DHT22;9212;50.894;16.714;2022-07-23T04:56:35;20.10;99.90
18175;DHT22;9212;50.894;16.714;2022-07-23T04:59:02;20.30;99.90
18175;DHT22;9212;50.894;16.714;2022-07-23T05:01:30;20.40;99.90
18175;DHT22;9212;50.894;16.714;2022-07-23T05:03:56;20.30;99.90
18175;DHT22;9212;50.894;16.714;2022-07-23T05:06:25;20.40;99.90
18175;DHT22;9212;50.894;16.714;2022-07-23T05:08:52;20.60;99.90
18175;DHT22;9212;50.894;16.714;2022-07-23T05:11:20;20.50;99.90
18175;DHT22;9212;50.894;16.714;2022-07-23T05:13:47;20.50;99.90
18175;DHT22;9212;50.894;16.714;2022-07-23T05:16:14;20.50;99.90
18175;DHT22;9212;50.894;16.714;2022-07-23T05:18:41;20.60;99.90
18175;DHT22;9212;50.894;16.714;2022-07-23T05:21:08;20.60;99.90
18175;DHT22;9212;50.894;16.714;2022-07-23T05:23:37;20.60;99.90
18175;DHT22;9212;50.894;16.714;2022-07-23T05:26:04;20.80;99.90
18175;DHT22;9212;50.894;16.714;2022-07-23T05:28:31;20.90;99.90
18175;DHT22;9212;50.894;16.714;2022-07-23T05:30:58;20.90;99.90
18175;DHT22;9212;50.894;16.714;2022-07-23T05:33:25;21.00;99.90
18175;DHT22;9212;50.894;16.714;2022-07-23T05:35:52;21.30;99.90
18175;DHT22;9212;50.894;16.714;2022-07-23T05:38:19;21.30;99.90
18175;DHT22;9212;50.894;16.714;2022-07-23T05:40:47;21.50;99.90
18175;DHT22;9212;50.894;16.714;2022-07-23T05:43:15;22.10;99.90
18175;DHT22;9212;50.894;16.714;2022-07-23T05:45:41;22.30;99.90
18175;DHT22;9212;50.894;16.714;2022-07-23T05:48:08;22.20;99.90
18175;DHT22;9212;50.894;16.714;2022-07-23T05:50:35;22.40;99.90
18175;DHT22;9212;50.894;16.714;2022-07-23T05:55:29;22.60;99.90
18175;DHT22;9212;50.894;16.714;2022-07-23T05:57:59;23.00;99.90
18175;DHT22;9212;50.894;16.714;2022-07-23T06:00:27;23.20;99.90
18175;DHT22;9212;50.894;16.714;2022-07-23T06:02:54;23.20;99.90
18175;DHT22;9212;50.894;16.714;2022-07-23T06:05:21;23.50;99.90
18175;DHT22;9212;50.894;16.714;2022-07-23T06:07:48;24.00;99.90
18175;DHT22;9212;50.894;16.714;2022-07-23T06:10:15;24.20;99.90
18175;DHT22;9212;50.894;16.714;2022-07-23T06:12:42;24.20;99.90
18175;DHT22;9212;50.894;16.714;2022-07-23T06:15:11;24.20;99.90
18175;DHT22;9212;50.894;16.714;2022-07-23T06:17:38;24.20;99.90
18175;DHT22;9212;50.894;16.714;2022-07-23T06:20:07;24.40;99.90
18175;DHT22;9212;50.894;16.714;2022-07-23T06:22:34;24.70;99.90
18175;DHT22;9212;50.894;16.714;2022-07-23T06:25:01;25.00;99.90
18175;DHT22;9212;50.894;16.714;2022-07-23T06:27:31;25.00;99.90
18175;DHT22;9212;50.894;16.714;2022-07-23T06:29:59;24.40;99.90
18175;DHT22;9212;50.894;16.714;2022-07-23T06:32:28;24.40;99.90
18175;DHT22;9212;50.894;16.714;2022-07-23T06:34:55;24.10;99.90
18175;DHT22;9212;50.894;16.714;2022-07-23T06:37:22;24.10;99.90
18175;DHT22;9212;50.894;16.714;2022-07-23T06:39:49;24.40;99.90
18175;DHT22;9212;50.894;16.714;2022-07-23T06:42:15;24.50;99.90
18175;DHT22;9212;50.894;16.714;2022-07-23T06:44:42;24.90;99.90
18175;DHT22;9212;50.894;16.714;2022-07-23T06:47:09;24.80;99.90
18175;DHT22;9212;50.894;16.714;2022-07-23T06:49:38;25.00;99.90
18175;DHT22;9212;50.894;16.714;2022-07-23T06:52:06;25.00;99.90
18175;DHT22;9212;50.894;16.714;2022-07-23T06:54:33;25.50;99.90
18175;DHT22;9212;50.894;16.714;2022-07-23T06:57:00;25.40;99.90
18175;DHT22;9212;50.894;16.714;2022-07-23T06:59:28;25.80;99.90
18175;DHT22;9212;50.894;16.714;2022-07-23T07:01:55;25.50;99.90
18175;DHT22;9212;50.894;16.714;2022-07-23T07:04:23;25.50;99.90
18175;DHT22;9212;50.894;16.714;2022-07-23T07:06:51;25.70;99.90
18175;DHT22;9212;50.894;16.714;2022-07-23T07:09:18;25.80;99.90
18175;DHT22;9212;50.894;16.714;2022-07-23T07:11:45;25.90;99.90
18175;DHT22;9212;50.894;16.714;2022-07-23T07:14:12;26.50;99.90
18175;DHT22;9212;50.894;16.714;2022-07-23T07:16:39;27.50;99.90
18175;DHT22;9212;50.894;16.714;2022-07-23T07:19:06;28.50;99.90
18175;DHT22;9212;50.894;16.714;2022-07-23T07:21:33;28.50;99.90
18175;DHT22;9212;50.894;16.714;2022-07-23T07:24:02;28.40;99.90
18175;DHT22;9212;50.894;16.714;2022-07-23T07:26:29;27.80;99.90
18175;DHT22;9212;50.894;16.714;2022-07-23T07:28:56;28.30;99.90
18175;DHT22;9212;50.894;16.714;2022-07-23T07:33:50;27.40;99.90
18175;DHT22;9212;50.894;16.714;2022-07-23T07:36:17;27.70;99.90
18175;DHT22;9212;50.894;16.714;2022-07-23T07:41:13;28.50;99.90
18175;DHT22;9212;50.894;16.714;2022-07-23T07:43:40;29.00;99.90
18175;DHT22;9212;50.894;16.714;2022-07-23T07:46:07;28.70;99.90
18175;DHT22;9212;50.894;16.714;2022-07-23T07:48:35;28.10;99.90
18175;DHT22;9212;50.894;16.714;2022-07-23T07:51:03;28.50;99.90
18175;DHT22;9212;50.894;16.714;2022-07-23T07:53:30;28.40;99.90
18175;DHT22;9212;50.894;16.714;2022-07-23T07:55:57;28.40;99.90
18175;DHT22;9212;50.894;16.714;2022-07-23T07:58:25;28.40;99.90
18175;DHT22;9212;50.894;16.714;2022-07-23T08:00:52;28.40;99.90
18175;DHT22;9212;50.894;16.714;2022-07-23T08:10:42;29.90;99.90
18175;DHT22;9212;50.894;16.714;2022-07-23T08:13:12;30.40;99.90
18175;DHT22;9212;50.894;16.714;2022-07-23T08:15:42;31.00;99.90
18175;DHT22;9212;50.894;16.714;2022-07-23T08:23:05;31.40;99.90
18175;DHT22;9212;50.894;16.714;2022-07-23T08:25:34;31.80;99.90
18175;DHT22;9212;50.894;16.714;2022-07-23T08:28:04;31.40;99.90
18175;DHT22;9212;50.894;16.714;2022-07-23T08:30:32;31.30;99.90
18175;DHT22;9212;50.894;16.714;2022-07-23T08:33:02;30.70;99.90
18175;DHT22;9212;50.894;16.714;2022-07-23T08:35:31;31.00;99.90
18175;DHT22;9212;50.894;16.714;2022-07-23T08:37:59;30.90;99.90
18175;DHT22;9212;50.894;16.714;2022-07-23T08:40:29;31.00;99.90
18175;DHT22;9212;50.894;16.714;2022-07-23T08:42:57;31.30;99.90
18175;DHT22;9212;50.894;16.714;2022-07-23T08:45:27;31.90;99.90
18175;DHT22;9212;50.894;16.714;2022-07-23T08:47:55;32.30;99.90
18175;DHT22;9212;50.894;16.714;2022-07-23T08:50:25;32.40;99.90
18175;DHT22;9212;50.894;16.714;2022-07-23T08:52:53;32.10;99.90
18175;DHT22;9212;50.894;16.714;2022-07-23T08:55:23;32.60;99.90
18175;DHT22;9212;50.894;16.714;2022-07-23T08:57:52;32.30;99.90
18175;DHT22;9212;50.894;16.714;2022-07-23T09:00:20;32.40;99.90
18175;DHT22;9212;50.894;16.714;2022-07-23T09:08:04;32.10;99.10
18175;DHT22;9212;50.894;16.714;2022-07-23T09:10:44;31.70;99.90
18175;DHT22;9212;50.894;16.714;2022-07-23T09:13:23;32.00;99.90
18175;DHT22;9212;50.894;16.714;2022-07-23T09:15:51;31.50;99.90
18175;DHT22;9212;50.894;16.714;2022-07-23T09:18:27;31.30;99.90
18175;DHT22;9212;50.894;16.714;2022-07-23T09:21:06;31.50;99.90
18175;DHT22;9212;50.894;16.714;2022-07-23T09:23:38;31.10;99.90
18175;DHT22;9212;50.894;16.714;2022-07-23T09:26:21;31.20;99.90
18175;DHT22;9212;50.894;16.714;2022-07-23T09:28:55;31.40;99.90
18175;DHT22;9212;50.894;16.714;2022-07-23T09:31:23;31.10;99.90
18175;DHT22;9212;50.894;16.714;2022-07-23T09:36:27;30.90;99.90
18175;DHT22;9212;50.894;16.714;2022-07-23T09:38:56;30.90;99.90
18175;DHT22;9212;50.894;16.714;2022-07-23T09:43:57;30.80;98.80
18175;DHT22;9212;50.894;16.714;2022-07-23T09:46:25;30.90;99.90
18175;DHT22;9212;50.894;16.714;2022-07-23T09:56:22;30.40;99.90
18175;DHT22;9212;50.894;16.714;2022-07-23T09:58:51;30.40;99.90
18175;DHT22;9212;50.894;16.714;2022-07-23T10:01:28;28.90;99.90
18175;DHT22;9212;50.894;16.714;2022-07-23T10:06:23;27.70;99.90
18175;DHT22;9212;50.894;16.714;2022-07-23T10:08:51;27.20;99.90
18175;DHT22;9212;50.894;16.714;2022-07-23T10:13:47;26.70;99.90
18175;DHT22;9212;50.894;16.714;2022-07-23T10:21:27;25.50;99.90
18175;DHT22;9212;50.894;16.714;2022-07-23T10:24:14;25.10;99.90
18175;DHT22;9212;50.894;16.714;2022-07-23T10:26:51;25.10;99.90
18175;DHT22;9212;50.894;16.714;2022-07-23T10:29:29;24.10;99.90
18175;DHT22;9212;50.894;16.714;2022-07-23T10:32:06;23.90;99.90
18175;DHT22;9212;50.894;16.714;2022-07-23T10:34:44;23.00;99.90
18175;DHT22;9212;50.894;16.714;2022-07-23T10:37:14;23.10;99.90
18175;DHT22;9212;50.894;16.714;2022-07-23T10:39:46;23.10;99.90
18175;DHT22;9212;50.894;16.714;2022-07-23T10:42:16;22.50;99.90
18175;DHT22;9212;50.894;16.714;2022-07-23T10:44:46;22.50;99.90
18175;DHT22;9212;50.894;16.714;2022-07-23T10:47:21;22.40;99.90
18175;DHT22;9212;50.894;16.714;2022-07-23T10:50:20;22.40;99.90
18175;DHT22;9212;50.894;16.714;2022-07-23T10:53:12;22.30;99.90
18175;DHT22;9212;50.894;16.714;2022-07-23T10:55:46;22.40;99.90
18175;DHT22;9212;50.894;16.714;2022-07-23T10:58:18;22.50;99.90
18175;DHT22;9212;50.894;16.714;2022-07-23T11:00:47;22.50;99.90
18175;DHT22;9212;50.894;16.714;2022-07-23T11:03:38;22.50;99.90
18175;DHT22;9212;50.894;16.714;2022-07-23T11:06:05;22.70;99.90
18175;DHT22;9212;50.894;16.714;2022-07-23T11:08:33;22.80;99.90
18175;DHT22;9212;50.894;16.714;2022-07-23T11:11:10;23.00;99.90
18175;DHT22;9212;50.894;16.714;2022-07-23T11:13:40;22.80;99.90
18175;DHT22;9212;50.894;16.714;2022-07-23T11:16:20;22.90;99.90
18175;DHT22;9212;50.894;16.714;2022-07-23T11:19:05;22.80;99.90
18175;DHT22;9212;50.894;16.714;2022-07-23T11:21:49;23.00;99.90
18175;DHT22;9212;50.894;16.714;2022-07-23T11:24:19;23.20;99.90
18175;DHT22;9212;50.894;16.714;2022-07-23T11:32:38;23.80;99.90
18175;DHT22;9212;50.894;16.714;2022-07-23T11:35:23;23.70;99.90
18175;DHT22;9212;50.894;16.714;2022-07-23T11:37:54;23.60;99.90
18175;DHT22;9212;50.894;16.714;2022-07-23T11:40:25;24.00;99.90
18175;DHT22;9212;50.894;16.714;2022-07-23T11:42:56;24.00;99.90
18175;DHT22;9212;50.894;16.714;2022-07-23T11:45:24;24.20;99.90
18175;DHT22;9212;50.894;16.714;2022-07-23T11:47:52;24.70;99.90
18175;DHT22;9212;50.894;16.714;2022-07-23T11:50:23;25.20;99.90
18175;DHT22;9212;50.894;16.714;2022-07-23T12:00:14;27.30;99.90
18175;DHT22;9212;50.894;16.714;2022-07-23T12:02:43;26.90;99.90
18175;DHT22;9212;50.894;16.714;2022-07-23T12:05:13;27.50;99.90
18175;DHT22;9212;50.894;16.714;2022-07-23T12:07:41;28.30;99.90
18175;DHT22;9212;50.894;16.714;2022-07-23T12:10:15;28.60;99.90
18175;DHT22;9212;50.894;16.714;2022-07-23T12:12:44;28.90;99.90
18175;DHT22;9212;50.894;16.714;2022-07-23T12:15:14;29.20;99.90
18175;DHT22;9212;50.894;16.714;2022-07-23T12:17:43;29.60;99.90
18175;DHT22;9212;50.894;16.714;2022-07-23T12:20:15;29.10;99.90
18175;DHT22;9212;50.894;16.714;2022-07-23T12:22:43;29.80;99.90
18175;DHT22;9212;50.894;16.714;2022-07-23T12:25:13;29.90;99.90
18175;DHT22;9212;50.894;16.714;2022-07-23T12:30:22;31.00;99.90
18175;DHT22;9212;50.894;16.714;2022-07-23T12:32:51;31.20;99.90
18175;DHT22;9212;50.894;16.714;2022-07-23T12:35:21;30.60;99.90
18175;DHT22;9212;50.894;16.714;2022-07-23T12:37:50;30.90;99.90
18175;DHT22;9212;50.894;16.714;2022-07-23T12:40:23;30.90;99.90
18175;DHT22;9212;50.894;16.714;2022-07-23T12:42:53;31.10;99.90
18175;DHT22;9212;50.894;16.714;2022-07-23T12:48:05;31.40;99.90
18175;DHT22;9212;50.894;16.714;2022-07-23T12:50:37;31.30;99.90
18175;DHT22;9212;50.894;16.714;2022-07-23T12:53:08;31.20;99.90
18175;DHT22;9212;50.894;16.714;2022-07-23T12:55:36;31.10;99.90
18175;DHT22;9212;50.894;16.714;2022-07-23T12:58:05;30.90;99.90
18175;DHT22;9212;50.894;16.714;2022-07-23T13:00:59;30.20;99.90
18175;DHT22;9212;50.894;16.714;2022-07-23T13:06:04;29.70;99.90
18175;DHT22;9212;50.894;16.714;2022-07-23T13:08:32;29.60;99.90
18175;DHT22;9212;50.894;16.714;2022-07-23T13:13:29;30.90;99.90
18175;DHT22;9212;50.894;16.714;2022-07-23T13:15:57;30.40;99.90
18175;DHT22;9212;50.894;16.714;2022-07-23T13:18:29;30.90;99.90
18175;DHT22;9212;50.894;16.714;2022-07-23T13:23:25;30.00;99.90
18175;DHT22;9212;50.894;16.714;2022-07-23T13:28:20;29.60;99.90
18175;DHT22;9212;50.894;16.714;2022-07-23T13:30:49;29.90;99.90
18175;DHT22;9212;50.894;16.714;2022-07-23T13:33:17;30.00;99.90
18175;DHT22;9212;50.894;16.714;2022-07-23T13:40:42;30.10;99.90
18175;DHT22;9212;50.894;16.714;2022-07-23T13:43:10;30.60;99.90
18175;DHT22;9212;50.894;16.714;2022-07-23T13:45:37;30.70;99.90
18175;DHT22;9212;50.894;16.714;2022-07-23T13:48:06;31.30;99.90
18175;DHT22;9212;50.894;16.714;2022-07-23T13:53:01;31.10;99.90
18175;DHT22;9212;50.894;16.714;2022-07-23T13:57:57;31.20;99.90
18175;DHT22;9212;50.894;16.714;2022-07-23T14:10:15;30.10;99.90
18175;DHT22;9212;50.894;16.714;2022-07-23T14:15:12;29.20;99.90
18175;DHT22;9212;50.894;16.714;2022-07-23T14:17:41;29.30;99.90
18175;DHT22;9212;50.894;16.714;2022-07-23T14:20:09;28.40;99.90
18175;DHT22;9212;50.894;16.714;2022-07-23T14:25:06;27.60;99.90
18175;DHT22;9212;50.894;16.714;2022-07-23T14:42:18;26.70;99.90
18175;DHT22;9212;50.894;16.714;2022-07-23T14:49:41;26.30;99.90
18175;DHT22;9212;50.894;16.714;2022-07-23T14:57:04;25.40;99.90
18175;DHT22;9212;50.894;16.714;2022-07-23T15:06:56;24.90;99.90
18175;DHT22;9212;50.894;16.714;2022-07-23T15:24:08;25.00;99.90
18175;DHT22;9212;50.894;16.714;2022-07-23T15:29:03;24.10;99.90
18175;DHT22;9212;50.894;16.714;2022-07-23T15:33:59;23.90;99.90
18175;DHT22;9212;50.894;16.714;2022-07-23T15:43:50;23.20;99.90
18175;DHT22;9212;50.894;16.714;2022-07-23T15:53:41;23.00;99.90
18175;DHT22;9212;50.894;16.714;2022-07-23T15:56:09;23.30;99.90
18175;DHT22;9212;50.894;16.714;2022-07-23T15:58:38;22.50;99.90
18175;DHT22;9212;50.894;16.714;2022-07-23T16:03:33;23.00;99.90
18175;DHT22;9212;50.894;16.714;2022-07-23T16:13:24;23.70;99.90
18175;DHT22;9212;50.894;16.714;2022-07-23T16:15:52;23.60;99.90
18175;DHT22;9212;50.894;16.714;2022-07-23T16:20:48;24.00;99.90
18175;DHT22;9212;50.894;16.714;2022-07-23T16:23:16;24.10;99.90
18175;DHT22;9212;50.894;16.714;2022-07-23T16:40:33;24.80;99.90
18175;DHT22;9212;50.894;16.714;2022-07-23T16:43:00;24.90;99.90
18175;DHT22;9212;50.894;16.714;2022-07-23T16:47:56;25.00;99.90
18175;DHT22;9212;50.894;16.714;2022-07-23T16:50:25;25.00;99.90
18175;DHT22;9212;50.894;16.714;2022-07-23T17:05:09;24.00;99.90
18175;DHT22;9212;50.894;16.714;2022-07-23T17:07:38;24.20;99.90
18175;DHT22;9212;50.894;16.714;2022-07-23T17:10:07;24.10;99.90
18175;DHT22;9212;50.894;16.714;2022-07-23T17:15:02;24.10;99.90
18175;DHT22;9212;50.894;16.714;2022-07-23T17:22:24;23.70;99.90
18175;DHT22;9212;50.894;16.714;2022-07-23T17:24:52;23.60;99.90
18175;DHT22;9212;50.894;16.714;2022-07-23T17:32:13;23.20;99.90
18175;DHT22;9212;50.894;16.714;2022-07-23T17:42:04;23.50;99.90
18175;DHT22;9212;50.894;16.714;2022-07-23T17:59:17;23.20;99.90
18175;DHT22;9212;50.894;16.714;2022-07-23T18:01:44;23.20;99.90
18175;DHT22;9212;50.894;16.714;2022-07-23T18:14:02;22.30;99.90
18175;DHT22;9212;50.894;16.714;2022-07-23T18:16:31;22.90;99.90
18175;DHT22;9212;50.894;16.714;2022-07-23T18:18:58;22.80;99.90
18175;DHT22;9212;50.894;16.714;2022-07-23T18:21:25;22.80;99.90
18175;DHT22;9212;50.894;16.714;2022-07-23T18:23:52;22.70;99.90
18175;DHT22;9212;50.894;16.714;2022-07-23T18:26:20;22.60;99.90
18175;DHT22;9212;50.894;16.714;2022-07-23T18:28:47;22.60;99.90
18175;DHT22;9212;50.894;16.714;2022-07-23T18:33:43;22.40;99.90
18175;DHT22;9212;50.894;16.714;2022-07-23T18:38:37;22.20;99.90
18175;DHT22;9212;50.894;16.714;2022-07-23T18:41:04;22.10;99.90
18175;DHT22;9212;50.894;16.714;2022-07-23T18:43:31;22.00;99.90
18175;DHT22;9212;50.894;16.714;2022-07-23T18:46:01;22.00;99.90
18175;DHT22;9212;50.894;16.714;2022-07-23T18:48:28;21.90;99.90
18175;DHT22;9212;50.894;16.714;2022-07-23T18:50:57;21.90;99.90
18175;DHT22;9212;50.894;16.714;2022-07-23T18:55:51;21.70;99.90
18175;DHT22;9212;50.894;16.714;2022-07-23T18:58:18;21.70;99.90
18175;DHT22;9212;50.894;16.714;2022-07-23T19:03:13;21.50;99.90
18175;DHT22;9212;50.894;16.714;2022-07-23T19:05:40;21.40;99.90
18175;DHT22;9212;50.894;16.714;2022-07-23T19:08:08;21.30;99.90
18175;DHT22;9212;50.894;16.714;2022-07-23T19:10:36;21.10;99.90
18175;DHT22;9212;50.894;16.714;2022-07-23T19:13:04;21.00;99.90
18175;DHT22;9212;50.894;16.714;2022-07-23T19:15:31;20.90;99.90
18175;DHT22;9212;50.894;16.714;2022-07-23T19:17:59;20.80;99.90
18175;DHT22;9212;50.894;16.714;2022-07-23T19:20:26;20.60;99.90
18175;DHT22;9212;50.894;16.714;2022-07-23T19:22:53;20.50;99.90
18175;DHT22;9212;50.894;16.714;2022-07-23T19:25:21;20.30;99.90
18175;DHT22;9212;50.894;16.714;2022-07-23T19:30:16;19.80;99.90
18175;DHT22;9212;50.894;16.714;2022-07-23T19:32:42;19.80;99.90
18175;DHT22;9212;50.894;16.714;2022-07-23T19:35:10;19.70;99.90
18175;DHT22;9212;50.894;16.714;2022-07-23T19:37:37;19.60;99.90
18175;DHT22;9212;50.894;16.714;2022-07-23T19:40:06;19.80;99.90
18175;DHT22;9212;50.894;16.714;2022-07-23T19:42:35;19.60;99.90
18175;DHT22;9212;50.894;16.714;2022-07-23T19:45:03;17.40;99.90
18175;DHT22;9212;50.894;16.714;2022-07-23T19:47:31;19.30;99.90
18175;DHT22;9212;50.894;16.714;2022-07-23T19:49:58;19.20;99.90
18175;DHT22;9212;50.894;16.714;2022-07-23T19:52:25;19.10;99.90
18175;DHT22;9212;50.894;16.714;2022-07-23T19:54:52;19.00;99.90
18175;DHT22;9212;50.894;16.714;2022-07-23T19:57:19;18.80;99.90
18175;DHT22;9212;50.894;16.714;2022-07-23T19:59:47;19.20;99.90
18175;DHT22;9212;50.894;16.714;2022-07-23T20:02:14;18.70;99.90
18175;DHT22;9212;50.894;16.714;2022-07-23T20:04:42;18.60;99.90
18175;DHT22;9212;50.894;16.714;2022-07-23T20:07:09;18.50;99.90
18175;DHT22;9212;50.894;16.714;2022-07-23T20:09:37;18.50;99.90